Time;durP1;ratioP1;P1;durP2;ratioP2;P2;SDS_P1;SDS_P2;PMS_P1;PMS_P2;Temp;Humidity;BMP_temperature;BMP_pressure;BME280_temperature;BME280_humidity;BME280_pressure;Samples;Min_cycle;Max_cycle;Signal;HPM_P1;HPM_P2
2023/09/15 00:02:16;;;;;;;5.57;2.05;;;;;;;13.56;70.38;102304.56;7399088;19;19933;-74
2023/09/15 00:04:44;;;;;;;4.85;1.88;;;;;;;13.54;70.25;102297.63;7400463;19;20333;-74
2023/09/15 00:07:14;;;;;;;3.10;1.90;;;;;;;13.51;70.32;102300.66;7395027;19;19933;-75
2023/09/15 00:09:45;;;;;;;3.60;1.73;;;;;;;13.45;70.63;102307.56;7399075;19;19985;-74
2023/09/15 00:12:34;;;;;;;6.43;2.08;;;;;;;13.41;70.60;102306.19;7395920;19;19915;-74
2023/09/15 00:15:07;;;;;;;4.07;2.13;;;;;;;13.37;71.04;102302.13;7393972;19;19974;-74
2023/09/15 00:17:38;;;;;;;4.32;2.00;;;;;;;13.35;70.84;102309.53;7398075;19;19923;-74
2023/09/15 00:20:13;;;;;;;4.80;1.83;;;;;;;13.32;71.20;102304.44;7400774;19;19937;-74
2023/09/15 00:22:48;;;;;;;4.85;2.08;;;;;;;13.32;70.96;102296.34;7400005;19;19935;-74
2023/09/15 00:25:20;;;;;;;3.75;2.42;;;;;;;13.26;71.71;102291.53;7397959;19;19926;-74
2023/09/15 00:27:50;;;;;;;4.38;2.33;;;;;;;13.23;71.46;102291.88;7398942;19;19927;-74
2023/09/15 00:30:19;;;;;;;5.90;1.90;;;;;;;13.23;71.58;102293.72;7400248;19;19923;-74
2023/09/15 00:32:49;;;;;;;3.85;2.20;;;;;;;13.21;71.19;102293.88;7397215;19;19950;-74
2023/09/15 00:35:19;;;;;;;4.90;2.10;;;;;;;13.18;71.34;102292.34;7397742;19;19915;-74
2023/09/15 00:37:49;;;;;;;4.18;2.10;;;;;;;13.14;71.73;102284.72;7400429;19;19914;-74
2023/09/15 00:40:21;;;;;;;3.80;1.60;;;;;;;13.13;71.95;102291.13;7397061;19;19994;-74
2023/09/15 00:42:51;;;;;;;5.50;2.17;;;;;;;13.09;71.91;102289.72;7398396;19;19950;-75
2023/09/15 00:45:22;;;;;;;4.38;1.98;;;;;;;13.06;72.09;102284.63;7398564;19;19922;-74
2023/09/15 00:47:53;;;;;;;4.22;2.35;;;;;;;13.01;72.13;102286.94;7399904;19;19930;-73
2023/09/15 00:50:24;;;;;;;3.40;2.20;;;;;;;12.96;72.46;102283.88;7397781;19;19950;-73
2023/09/15 00:52:57;;;;;;;3.55;2.03;;;;;;;12.94;72.10;102285.91;7400509;19;19923;-74
2023/09/15 00:55:30;;;;;;;6.28;2.20;;;;;;;12.90;72.38;102287.22;7402106;19;20459;-74
2023/09/15 00:58:02;;;;;;;6.28;2.13;;;;;;;12.89;72.58;102285.50;7400964;19;19922;-75
2023/09/15 01:00:31;;;;;;;5.63;2.20;;;;;;;12.86;72.58;102280.41;7394913;19;19969;-74
2023/09/15 01:03:01;;;;;;;3.30;2.30;;;;;;;12.84;72.67;102275.16;7396324;19;20360;-75
2023/09/15 01:05:30;;;;;;;3.78;2.45;;;;;;;12.79;73.12;102273.94;7397699;19;19921;-75
2023/09/15 01:07:59;;;;;;;4.70;2.22;;;;;;;12.72;72.98;102282.69;7392165;19;19926;-74
2023/09/15 01:10:31;;;;;;;4.72;2.22;;;;;;;12.70;73.25;102273.00;7395092;19;20536;-74
2023/09/15 01:12:59;;;;;;;4.65;2.70;;;;;;;12.65;73.64;102283.44;7399354;19;19942;-74
2023/09/15 01:15:33;;;;;;;3.80;3.05;;;;;;;12.64;73.16;102270.97;7397950;19;19922;-74
2023/09/15 01:18:11;;;;;;;4.57;2.35;;;;;;;12.60;73.79;102273.09;7397247;19;19939;-74
2023/09/15 01:21:07;;;;;;;3.50;2.28;;;;;;;12.55;74.02;102271.88;7399686;19;19910;-74
2023/09/15 01:23:55;;;;;;;3.95;2.50;;;;;;;12.55;74.04;102270.03;7396630;19;19943;-75
2023/09/15 01:26:58;;;;;;;4.28;2.92;;;;;;;12.45;74.85;102265.72;7398509;19;19982;-74
2023/09/15 01:29:47;;;;;;;4.60;2.40;;;;;;;12.44;74.36;102258.59;7397773;19;19933;-74
2023/09/15 01:32:41;;;;;;;5.20;2.75;;;;;;;12.48;73.87;102265.38;7396553;19;20017;-74
2023/09/15 01:35:10;;;;;;;4.00;2.50;;;;;;;12.45;73.74;102258.44;7399635;19;19935;-74
2023/09/15 01:37:39;;;;;;;6.28;2.50;;;;;;;12.45;73.49;102258.44;7398288;19;21064;-74
2023/09/15 01:40:10;;;;;;;5.93;2.70;;;;;;;12.43;73.93;102263.16;7396699;19;19922;-73
2023/09/15 01:42:38;;;;;;;5.90;2.75;;;;;;;12.40;74.11;102255.38;7393746;19;19922;-75
2023/09/15 01:45:11;;;;;;;5.22;2.75;;;;;;;12.37;74.39;102252.97;7399035;19;19926;-68
2023/09/15 01:47:41;;;;;;;4.18;2.90;;;;;;;12.34;74.14;102247.84;7396017;19;19926;-66
2023/09/15 01:50:12;;;;;;;4.53;2.80;;;;;;;12.34;74.10;102250.56;7396342;19;20371;-65
2023/09/15 01:52:41;;;;;;;4.75;2.63;;;;;;;12.33;73.90;102248.88;7391457;19;20006;-65
2023/09/15 01:55:10;;;;;;;6.35;2.63;;;;;;;12.34;73.94;102258.66;7397952;19;19942;-65
2023/09/15 01:57:40;;;;;;;5.80;3.20;;;;;;;12.32;74.11;102252.59;7395482;19;19923;-66
2023/09/15 02:00:15;;;;;;;3.67;2.58;;;;;;;12.30;74.62;102248.34;7398326;19;20336;-65
2023/09/15 02:02:43;;;;;;;5.75;3.33;;;;;;;12.24;75.16;102253.38;7390693;19;19919;-65
2023/09/15 02:05:15;;;;;;;4.30;3.00;;;;;;;12.24;74.69;102247.97;7396800;19;19926;-65
2023/09/15 02:07:44;;;;;;;5.00;2.92;;;;;;;12.24;74.63;102247.09;7391863;19;20006;-65
2023/09/15 02:10:12;;;;;;;4.90;2.78;;;;;;;12.24;74.54;102249.81;7394213;19;19922;-65
2023/09/15 02:12:41;;;;;;;4.85;2.55;;;;;;;12.22;74.44;102246.41;7396941;19;19942;-65
2023/09/15 02:15:32;;;;;;;4.72;2.65;;;;;;;12.16;74.68;102244.34;7383583;19;20561;-65
2023/09/15 02:18:03;;;;;;;4.82;3.10;;;;;;;12.15;74.56;102245.31;7370857;19;19918;-65
2023/09/15 02:20:32;;;;;;;8.60;3.40;;;;;;;12.14;74.81;102243.63;7371940;19;19934;-67
2023/09/15 02:23:03;;;;;;;5.60;2.90;;;;;;;12.11;74.81;102244.78;7394568;19;19923;-65
2023/09/15 02:25:32;;;;;;;8.23;2.88;;;;;;;12.09;75.01;102241.38;7395953;19;19919;-65
2023/09/15 02:28:02;;;;;;;4.65;3.00;;;;;;;12.04;74.73;102240.13;7393842;19;19954;-65
2023/09/15 02:30:33;;;;;;;3.15;2.63;;;;;;;12.01;75.08;102235.03;7393287;19;20375;-66
2023/09/15 02:33:02;;;;;;;4.40;2.97;;;;;;;11.96;74.91;102226.53;7394474;19;19922;-65
2023/09/15 02:35:30;;;;;;;4.80;3.00;;;;;;;11.93;75.11;102226.88;7396625;19;19923;-65
2023/09/15 02:37:59;;;;;;;5.80;2.90;;;;;;;11.91;75.50;102223.47;7394105;19;19972;-66
2023/09/15 02:40:28;;;;;;;6.97;3.17;;;;;;;11.94;75.04;102225.88;7390781;19;20301;-65
2023/09/15 02:42:57;;;;;;;5.10;3.42;;;;;;;11.90;74.94;102228.03;7395518;19;19958;-66
2023/09/15 02:45:25;;;;;;;4.53;3.35;;;;;;;11.89;75.29;102230.88;7396432;19;19952;-66
2023/09/15 02:47:57;;;;;;;6.93;2.90;;;;;;;11.88;75.41;102227.31;7392755;19;20609;-65
2023/09/15 02:50:46;;;;;;;4.95;3.35;;;;;;;11.88;75.31;102226.47;7394420;19;19926;-65
2023/09/15 02:53:14;;;;;;;6.25;3.22;;;;;;;11.87;75.20;102227.47;7394953;19;19951;-66
2023/09/15 02:55:43;;;;;;;5.60;3.33;;;;;;;11.83;75.62;102224.22;7395126;19;19926;-65
2023/09/15 02:58:33;;;;;;;4.60;3.50;;;;;;;11.82;75.55;102212.56;7388068;19;19951;-65
2023/09/15 03:01:04;;;;;;;5.18;3.75;;;;;;;11.83;75.57;102216.97;7394026;19;20348;-66
2023/09/15 03:03:35;;;;;;;4.43;3.17;;;;;;;11.85;75.49;102215.97;7391309;19;19926;-65
2023/09/15 03:06:08;;;;;;;6.50;3.42;;;;;;;11.86;75.48;102218.53;7392836;19;19923;-66
2023/09/15 03:08:37;;;;;;;4.70;3.00;;;;;;;11.85;75.30;102215.97;7390456;19;19927;-65
2023/09/15 03:11:25;;;;;;;5.50;3.20;;;;;;;11.82;75.65;102209.88;7377231;19;20510;-65
2023/09/15 03:14:16;;;;;;;3.85;2.78;;;;;;;11.77;75.85;102219.44;7370331;19;19926;-65
2023/09/15 03:16:45;;;;;;;5.07;3.20;;;;;;;11.76;75.50;102217.75;7370137;19;19994;-66
2023/09/15 03:19:16;;;;;;;3.90;3.30;;;;;;;11.77;75.67;102211.34;7373133;19;20032;-65
2023/09/15 03:22:05;;;;;;;4.97;3.15;;;;;;;11.74;75.71;102208.94;7369661;19;19933;-65
2023/09/15 03:24:34;;;;;;;6.00;3.35;;;;;;;11.72;76.07;102202.84;7371493;19;19954;-65
2023/09/15 03:27:03;;;;;;;4.82;3.08;;;;;;;11.72;76.06;102205.56;7394570;19;20068;-65
2023/09/15 03:29:31;;;;;;;7.75;3.08;;;;;;;11.70;75.99;102208.34;7399388;19;19918;-65
2023/09/15 03:32:00;;;;;;;7.25;3.28;;;;;;;11.66;76.13;102209.66;7384292;19;19922;-65
2023/09/15 03:34:31;;;;;;;5.93;3.33;;;;;;;11.63;76.05;102203.72;7400788;19;19942;-64
2023/09/15 03:37:20;;;;;;;4.15;3.13;;;;;;;11.56;76.46;102200.75;7396907;19;19927;-65
2023/09/15 03:40:11;;;;;;;7.18;3.65;;;;;;;11.52;76.38;102195.84;7394689;19;19947;-65
2023/09/15 03:42:40;;;;;;;5.18;3.28;;;;;;;11.49;76.35;102196.13;7398590;19;19926;-65
2023/09/15 03:45:09;;;;;;;5.47;3.00;;;;;;;11.44;76.60;102199.28;7399452;19;19915;-65
2023/09/15 03:47:38;;;;;;;4.60;3.40;;;;;;;11.40;76.93;102197.88;7398440;19;19926;-65
2023/09/15 03:50:11;;;;;;;5.55;3.85;;;;;;;11.37;76.88;102204.44;7392880;19;20049;-65
2023/09/15 03:52:39;;;;;;;5.75;3.47;;;;;;;11.31;77.20;102193.38;7398489;19;19923;-65
2023/09/15 03:55:10;;;;;;;6.60;3.70;;;;;;;11.30;77.08;102194.41;7396615;19;19918;-65
2023/09/15 03:57:39;;;;;;;5.20;3.50;;;;;;;11.29;76.91;102190.00;7399188;19;19926;-65
2023/09/15 04:00:15;;;;;;;6.05;3.92;;;;;;;11.27;77.31;102183.88;7399615;19;19925;-65
2023/09/15 04:02:44;;;;;;;5.60;3.70;;;;;;;11.17;77.52;102183.94;7399013;19;19926;-66
2023/09/15 04:05:15;;;;;;;5.38;3.40;;;;;;;11.15;77.30;102183.25;7397610;19;19923;-65
2023/09/15 04:07:44;;;;;;;9.48;3.85;;;;;;;11.14;77.67;102189.63;7397670;19;20275;-65
2023/09/15 04:10:33;;;;;;;5.38;4.05;;;;;;;11.13;77.38;102192.50;7389143;19;20022;-65
2023/09/15 04:13:01;;;;;;;6.60;4.00;;;;;;;11.14;77.39;102195.00;7387831;19;19925;-65
2023/09/15 04:15:30;;;;;;;4.82;3.38;;;;;;;11.14;77.48;102192.31;7387795;19;19934;-65
2023/09/15 04:17:59;;;;;;;7.47;4.63;;;;;;;11.15;77.81;102195.88;7384274;19;20328;-65
2023/09/15 04:20:30;;;;;;;5.90;3.75;;;;;;;11.15;77.43;102198.56;7394673;19;19970;-65
2023/09/15 04:22:59;;;;;;;6.45;3.78;;;;;;;11.14;77.35;102197.72;7392295;19;19930;-65
2023/09/15 04:25:27;;;;;;;8.10;3.80;;;;;;;11.14;77.41;102204.94;7392835;19;19918;-65
2023/09/15 04:27:56;;;;;;;6.75;3.88;;;;;;;11.13;77.42;102204.09;7388129;19;19967;-65
2023/09/15 04:30:25;;;;;;;5.93;3.95;;;;;;;11.11;77.51;102200.72;7388115;19;19930;-65
2023/09/15 04:32:53;;;;;;;5.18;4.32;;;;;;;11.10;77.93;102190.91;7394547;19;19922;-65
2023/09/15 04:35:22;;;;;;;9.00;3.97;;;;;;;11.09;77.91;102194.59;7398187;19;19918;-65
2023/09/15 04:37:53;;;;;;;6.47;4.22;;;;;;;11.09;77.85;102191.09;7400021;19;19925;-65
2023/09/15 04:40:22;;;;;;;7.80;4.25;;;;;;;11.04;77.92;102188.84;7395949;19;19985;-65
2023/09/15 04:42:51;;;;;;;6.57;4.15;;;;;;;11.01;78.00;102193.66;7398466;19;19919;-65
2023/09/15 04:45:20;;;;;;;8.00;3.67;;;;;;;10.99;78.01;102187.56;7398372;19;19929;-64
2023/09/15 04:47:48;;;;;;;8.07;4.25;;;;;;;10.96;78.03;102190.56;7399426;19;19911;-64
2023/09/15 04:50:17;;;;;;;7.82;4.75;;;;;;;10.97;78.13;102192.25;7398575;19;19946;-64
2023/09/15 04:52:46;;;;;;;6.00;3.40;;;;;;;10.97;77.93;102186.84;7396100;19;19922;-65
2023/09/15 04:55:17;;;;;;;7.50;4.68;;;;;;;10.97;77.82;102182.31;7398099;19;19918;-65
2023/09/15 04:57:46;;;;;;;7.57;4.05;;;;;;;10.96;77.93;102185.19;7398668;19;19950;-64
2023/09/15 05:00:23;;;;;;;6.63;4.63;;;;;;;10.91;78.22;102183.75;7397185;19;19918;-65
2023/09/15 05:02:52;;;;;;;6.72;4.40;;;;;;;10.87;78.11;102185.03;7399302;19;19918;-66
2023/09/15 05:05:20;;;;;;;7.20;3.92;;;;;;;10.86;78.40;102188.75;7396970;19;20350;-65
2023/09/15 05:07:49;;;;;;;7.13;4.22;;;;;;;10.86;78.22;102186.06;7389441;19;20392;-64
2023/09/15 05:10:41;;;;;;;7.55;4.10;;;;;;;10.84;78.27;102185.34;7390538;19;20634;-65
2023/09/15 05:13:09;;;;;;;7.07;3.97;;;;;;;10.81;78.69;102192.88;7400397;19;19930;-65
2023/09/15 05:15:38;;;;;;;6.50;3.60;;;;;;;10.78;78.49;102194.03;7400165;19;19954;-65
2023/09/15 05:18:07;;;;;;;7.53;4.25;;;;;;;10.78;78.41;102193.19;7398846;19;19929;-65
2023/09/15 05:20:36;;;;;;;8.48;4.03;;;;;;;10.77;78.36;102203.09;7396551;19;20626;-66
2023/09/15 05:23:04;;;;;;;5.95;3.47;;;;;;;10.78;78.53;102198.56;7396017;19;19938;-65
2023/09/15 05:25:33;;;;;;;8.10;4.55;;;;;;;10.78;78.50;102207.50;7396899;19;20272;-65
2023/09/15 05:28:04;;;;;;;4.60;4.00;;;;;;;10.79;78.63;102211.88;7396458;19;20353;-66
2023/09/15 05:30:34;;;;;;;6.82;4.47;;;;;;;10.78;78.48;102199.41;7390164;19;19963;-66
2023/09/15 05:33:06;;;;;;;7.70;4.60;;;;;;;10.79;78.43;102192.16;7391001;19;19918;-65
2023/09/15 05:35:35;;;;;;;5.68;4.25;;;;;;;10.77;78.50;102200.41;7386948;19;19919;-66
2023/09/15 05:38:03;;;;;;;8.05;4.68;;;;;;;10.77;78.60;102204.94;7386831;19;19946;-66
2023/09/15 05:40:32;;;;;;;7.72;4.35;;;;;;;10.79;78.60;102205.63;7389857;19;19919;-66
2023/09/15 05:43:03;;;;;;;5.72;4.30;;;;;;;10.82;78.64;102210.75;7397565;19;19922;-67
2023/09/15 05:45:32;;;;;;;5.55;5.05;;;;;;;10.81;78.97;102203.66;7391001;19;19926;-66
2023/09/15 05:48:00;;;;;;;6.05;4.45;;;;;;;10.83;78.62;102202.50;7394930;19;19930;-66
2023/09/15 05:50:29;;;;;;;6.32;4.30;;;;;;;10.84;78.71;102204.22;7392514;19;19919;-65
2023/09/15 05:52:58;;;;;;;5.10;3.83;;;;;;;10.86;78.68;102198.69;7392548;19;19923;-65
2023/09/15 05:55:26;;;;;;;8.98;4.38;;;;;;;10.90;78.49;102209.03;7392496;19;19943;-65
2023/09/15 05:57:55;;;;;;;5.75;4.70;;;;;;;10.98;78.18;102204.72;7396307;19;19922;-65
2023/09/15 06:00:27;;;;;;;8.18;4.05;;;;;;;11.01;78.28;102199.91;7392683;19;20200;-66
2023/09/15 06:02:56;;;;;;;7.80;3.88;;;;;;;11.02;78.69;102206.13;7394982;19;19930;-65
2023/09/15 06:05:45;;;;;;;7.72;3.72;;;;;;;11.05;78.30;102201.28;7382822;19;20304;-65
2023/09/15 06:08:13;;;;;;;6.75;4.55;;;;;;;11.11;78.26;102207.97;7384400;19;19934;-66
2023/09/15 06:10:42;;;;;;;4.80;4.30;;;;;;;11.14;78.24;102199.56;7381256;19;19915;-65
2023/09/15 06:13:11;;;;;;;7.78;4.53;;;;;;;11.17;77.92;102191.19;7391398;19;19930;-65
2023/09/15 06:15:42;;;;;;;8.07;4.00;;;;;;;11.19;77.93;102191.88;7394181;19;19930;-65
2023/09/15 06:18:11;;;;;;;6.78;4.40;;;;;;;11.19;78.43;102198.13;7395378;19;19922;-65
2023/09/15 06:20:42;;;;;;;8.45;4.15;;;;;;;11.24;78.16;102197.69;7396884;19;19951;-66
2023/09/15 06:23:31;;;;;;;8.35;4.53;;;;;;;11.28;78.06;102202.63;7377616;19;20001;-64
2023/09/15 06:26:00;;;;;;;9.85;5.18;;;;;;;11.31;78.15;102201.47;7394450;19;19926;-64
2023/09/15 06:28:29;;;;;;;10.45;4.50;;;;;;;11.35;78.16;102201.03;7395243;19;19927;-64
2023/09/15 06:31:00;;;;;;;8.57;4.82;;;;;;;11.44;78.09;102199.28;7392133;19;19948;-64
2023/09/15 06:33:29;;;;;;;5.30;4.07;;;;;;;11.49;77.97;102194.28;7394814;19;19929;-64
2023/09/15 06:35:58;;;;;;;8.55;4.25;;;;;;;11.55;78.01;102201.78;7387766;19;19918;-64
2023/09/15 06:38:27;;;;;;;7.63;4.45;;;;;;;11.60;77.83;102196.78;7392690;19;20713;-64
2023/09/15 06:40:56;;;;;;;6.40;4.43;;;;;;;11.66;77.79;102201.56;7381158;19;20026;-64
2023/09/15 06:43:44;;;;;;;7.35;3.95;;;;;;;11.70;78.20;102202.09;7380716;19;20356;-64
2023/09/15 06:46:21;;;;;;;6.13;4.45;;;;;;;11.73;77.99;102197.31;7385431;19;19987;-64
2023/09/15 06:48:50;;;;;;;9.02;4.47;;;;;;;11.80;78.19;102211.03;7394121;19;20379;-64
2023/09/15 06:51:19;;;;;;;7.13;3.80;;;;;;;11.85;77.99;102202.47;7390605;19;19923;-64
2023/09/15 06:53:48;;;;;;;7.97;4.60;;;;;;;11.88;78.48;102203.00;7393015;19;19937;-64
2023/09/15 06:56:36;;;;;;;9.15;4.72;;;;;;;11.91;78.08;102208.09;7393851;19;19923;-64
2023/09/15 06:59:26;;;;;;;8.55;5.30;;;;;;;11.97;78.43;102203.94;7386515;19;20379;-64
2023/09/15 07:02:18;;;;;;;5.47;3.58;;;;;;;12.03;78.12;102204.19;7394295;19;19919;-64
2023/09/15 07:04:46;;;;;;;6.95;4.10;;;;;;;12.07;78.53;102211.00;7389637;19;19926;-64
2023/09/15 07:07:15;;;;;;;7.78;4.47;;;;;;;12.13;78.16;102204.94;7392048;19;20333;-65
2023/09/15 07:09:44;;;;;;;7.00;4.15;;;;;;;12.20;78.31;102205.19;7394104;19;20223;-64
2023/09/15 07:12:12;;;;;;;6.57;3.97;;;;;;;12.26;77.99;102199.16;7396819;19;20357;-64
2023/09/15 07:14:41;;;;;;;8.95;4.20;;;;;;;12.33;78.14;102204.81;7399317;19;19919;-64
2023/09/15 07:17:10;;;;;;;7.53;4.57;;;;;;;12.39;77.60;102201.44;7400736;19;19927;-64
2023/09/15 07:19:44;;;;;;;6.30;4.05;;;;;;;12.45;78.30;102204.41;7393944;19;19919;-64
2023/09/15 07:22:32;;;;;;;11.98;4.55;;;;;;;12.53;78.17;102199.06;7387867;19;19915;-64
2023/09/15 07:25:01;;;;;;;7.15;3.83;;;;;;;12.59;78.03;102193.03;7395526;19;19934;-64
2023/09/15 07:27:30;;;;;;;8.02;4.28;;;;;;;12.64;78.09;102198.78;7396210;19;19930;-64
2023/09/15 07:29:58;;;;;;;7.97;4.07;;;;;;;12.71;77.83;102199.00;7396646;19;19923;-64
2023/09/15 07:32:47;;;;;;;7.35;4.13;;;;;;;12.77;77.91;102206.47;7396397;19;19919;-64
2023/09/15 07:35:38;;;;;;;6.07;4.10;;;;;;;12.85;77.79;102198.44;7395187;19;19926;-65
2023/09/15 07:38:08;;;;;;;8.27;4.80;;;;;;;12.94;77.64;102191.22;7390258;19;19919;-64
2023/09/15 07:40:39;;;;;;;6.72;4.15;;;;;;;12.99;77.07;102186.16;7392512;19;19922;-64
2023/09/15 07:43:08;;;;;;;6.57;3.85;;;;;;;13.04;77.45;102189.22;7394402;19;19918;-64
2023/09/15 07:45:37;;;;;;;6.32;4.43;;;;;;;13.08;77.96;102191.47;7395185;19;19929;-64
2023/09/15 07:48:27;;;;;;;7.65;4.68;;;;;;;13.15;77.50;102186.28;7396538;19;19918;-64
2023/09/15 07:50:58;;;;;;;7.55;4.82;;;;;;;13.22;77.19;102190.03;7397436;19;20281;-65
2023/09/15 07:53:27;;;;;;;6.95;3.55;;;;;;;13.28;76.89;102185.84;7394838;19;19926;-63
2023/09/15 07:55:56;;;;;;;10.02;4.10;;;;;;;13.36;77.00;102191.28;7394353;19;20291;-64
2023/09/15 07:58:24;;;;;;;9.18;3.83;;;;;;;13.43;76.59;102184.19;7393928;19;19922;-64
2023/09/15 08:00:53;;;;;;;4.93;3.80;;;;;;;13.48;76.73;102177.28;7393426;19;19955;-65
2023/09/15 08:03:43;;;;;;;9.52;4.53;;;;;;;13.53;76.82;102174.94;7394553;19;19922;-64
2023/09/15 08:06:16;;;;;;;6.05;4.50;;;;;;;13.61;76.74;102166.84;7396099;19;19930;-65
2023/09/15 08:08:45;;;;;;;6.32;3.95;;;;;;;13.70;76.74;102175.84;7397336;19;19978;-64
2023/09/15 08:11:13;;;;;;;8.27;3.60;;;;;;;13.79;76.73;102168.56;7396188;19;19923;-64
2023/09/15 08:13:42;;;;;;;5.47;3.17;;;;;;;13.87;76.19;102174.00;7400585;19;19923;-64
2023/09/15 08:16:11;;;;;;;7.15;3.97;;;;;;;13.93;76.16;102166.06;7392545;19;20276;-64
2023/09/15 08:18:59;;;;;;;8.57;3.90;;;;;;;14.01;76.69;102157.09;7392643;19;19978;-65
2023/09/15 08:21:30;;;;;;;6.07;3.35;;;;;;;14.12;76.58;102170.31;7395767;19;20336;-64
2023/09/15 08:24:00;;;;;;;9.65;3.78;;;;;;;14.21;76.71;102165.72;7385504;19;19954;-63
2023/09/15 08:26:29;;;;;;;6.63;3.88;;;;;;;14.31;76.66;102169.13;7399019;19;20380;-64
2023/09/15 08:28:58;;;;;;;6.03;3.60;;;;;;;14.39;75.95;102161.88;7397345;19;19926;-63
2023/09/15 08:31:28;;;;;;;9.02;4.72;;;;;;;14.50;76.30;102163.38;7389673;19;19927;-65
2023/09/15 08:33:57;;;;;;;4.80;3.33;;;;;;;14.60;76.16;102163.19;7394409;19;19938;-63
2023/09/15 08:36:30;;;;;;;5.93;3.35;;;;;;;14.70;75.89;102156.59;7395511;19;20285;-63
2023/09/15 08:38:59;;;;;;;5.82;3.40;;;;;;;14.79;75.91;102158.25;7390164;19;19922;-64
2023/09/15 08:41:33;;;;;;;7.45;3.40;;;;;;;14.87;74.68;102158.25;7395217;19;20249;-64
2023/09/15 08:44:02;;;;;;;9.43;3.65;;;;;;;14.96;74.87;102159.06;7392591;19;19926;-65
2023/09/15 08:46:33;;;;;;;5.90;3.47;;;;;;;15.05;74.08;102158.03;7396760;19;20715;-64
2023/09/15 08:49:22;;;;;;;5.85;3.17;;;;;;;15.14;74.00;102159.69;7379358;19;19937;-64
2023/09/15 08:51:56;;;;;;;7.68;3.55;;;;;;;15.25;74.35;102159.28;7385776;19;19934;-64
2023/09/15 08:54:26;;;;;;;8.70;3.95;;;;;;;15.39;74.04;102155.84;7396247;19;19957;-65
2023/09/15 08:56:56;;;;;;;4.53;2.92;;;;;;;15.55;74.23;102159.50;7397738;19;19942;-64
2023/09/15 08:59:25;;;;;;;8.93;3.55;;;;;;;15.70;74.32;102152.31;7391715;19;19927;-66
2023/09/15 09:01:54;;;;;;;5.50;3.38;;;;;;;15.82;72.21;102145.44;7396866;19;19947;-63
2023/09/15 09:04:24;;;;;;;8.88;2.60;;;;;;;15.91;72.42;102148.94;7398225;19;19930;-64
2023/09/15 09:06:55;;;;;;;5.57;3.35;;;;;;;16.02;72.62;102143.91;7392113;19;19925;-64
2023/09/15 09:09:25;;;;;;;4.28;2.45;;;;;;;16.15;72.92;102141.44;7393703;19;20277;-64
2023/09/15 09:11:54;;;;;;;5.93;2.58;;;;;;;16.28;71.34;102141.66;7391682;19;19922;-64
2023/09/15 09:14:43;;;;;;;5.22;3.28;;;;;;;16.40;70.87;102138.47;7392155;19;19926;-64
2023/09/15 09:17:13;;;;;;;5.57;2.97;;;;;;;16.49;70.38;102137.38;7391058;19;20353;-64
2023/09/15 09:19:46;;;;;;;4.50;2.63;;;;;;;16.59;69.81;102138.00;7389021;19;20355;-64
2023/09/15 09:22:19;;;;;;;4.63;2.28;;;;;;;16.68;69.59;102140.47;7389749;19;19927;-64
2023/09/15 09:24:55;;;;;;;4.75;2.45;;;;;;;16.82;70.18;102133.34;7397386;19;19923;-64
2023/09/15 09:27:24;;;;;;;6.03;2.03;;;;;;;16.93;68.62;102138.31;7398459;19;20321;-64
2023/09/15 09:29:55;;;;;;;6.85;3.30;;;;;;;17.00;68.23;102139.22;7387006;19;20375;-64
2023/09/15 09:32:44;;;;;;;5.72;2.53;;;;;;;17.08;68.90;102139.16;7371471;19;19919;-64
2023/09/15 09:35:14;;;;;;;8.02;2.38;;;;;;;17.18;67.84;102134.25;7384942;19;19947;-64
2023/09/15 09:37:46;;;;;;;5.38;2.45;;;;;;;17.28;67.33;102133.13;7393585;19;19926;-64
2023/09/15 09:40:15;;;;;;;5.25;2.65;;;;;;;17.37;67.58;102127.38;7394002;19;19926;-64
2023/09/15 09:42:44;;;;;;;5.60;2.50;;;;;;;17.45;66.98;102124.53;7394205;19;19933;-64
2023/09/15 09:45:14;;;;;;;4.60;2.17;;;;;;;17.55;66.83;102126.97;7394980;19;19918;-65
2023/09/15 09:47:43;;;;;;;5.90;2.35;;;;;;;17.63;66.08;102121.41;7390328;19;19933;-64
2023/09/15 09:50:13;;;;;;;4.28;2.35;;;;;;;17.74;66.44;102118.16;7393708;19;20285;-64
2023/09/15 09:52:42;;;;;;;7.03;2.90;;;;;;;17.86;66.61;102113.06;7390043;19;19934;-66
2023/09/15 09:55:14;;;;;;;7.43;3.38;;;;;;;17.97;66.30;102107.94;7397750;19;19953;-67
2023/09/15 09:57:44;;;;;;;3.83;2.33;;;;;;;18.10;65.71;102108.06;7380407;19;19926;-67
2023/09/15 10:00:18;;;;;;;9.27;3.40;;;;;;;18.16;65.06;102100.97;7396561;19;20506;-66
2023/09/15 10:02:47;;;;;;;5.45;2.80;;;;;;;18.24;65.60;102098.09;7386680;19;20260;-66
2023/09/15 10:05:17;;;;;;;8.48;3.22;;;;;;;18.34;65.01;102104.03;7381762;19;19919;-65
2023/09/15 10:07:47;;;;;;;6.10;2.90;;;;;;;18.43;64.84;102105.59;7396952;19;19919;-66
2023/09/15 10:10:19;;;;;;;7.22;3.33;;;;;;;18.54;65.16;102098.78;7392998;19;19918;-65
2023/09/15 10:12:48;;;;;;;9.80;3.47;;;;;;;18.67;64.56;102092.56;7391885;19;19922;-65
2023/09/15 10:15:17;;;;;;;8.35;2.65;;;;;;;18.77;64.22;102099.31;7393193;19;19918;-65
2023/09/15 10:17:46;;;;;;;4.63;2.25;;;;;;;18.89;62.92;102091.44;7387924;19;19922;-65
2023/09/15 10:20:15;;;;;;;5.55;2.85;;;;;;;18.97;61.89;102089.38;7388041;19;20836;-65
2023/09/15 10:22:44;;;;;;;6.65;2.53;;;;;;;19.06;61.52;102087.31;7395055;19;19922;-65
2023/09/15 10:25:21;;;;;;;7.50;3.10;;;;;;;19.11;60.62;102090.28;7396154;19;19960;-65
2023/09/15 10:27:49;;;;;;;7.18;3.28;;;;;;;19.20;60.91;102090.97;7394657;19;19930;-65
2023/09/15 10:30:39;;;;;;;4.78;2.78;;;;;;;19.30;60.94;102084.03;7395393;19;20393;-65
2023/09/15 10:33:09;;;;;;;4.60;3.17;;;;;;;19.42;59.23;102085.13;7394273;19;20447;-66
2023/09/15 10:35:40;;;;;;;9.23;2.70;;;;;;;19.48;59.50;102076.16;7392223;19;20335;-66
2023/09/15 10:38:30;;;;;;;6.70;2.60;;;;;;;19.60;60.48;102084.56;7388391;19;19922;-66
2023/09/15 10:41:05;;;;;;;5.43;3.17;;;;;;;19.72;57.79;102082.06;7391253;19;19926;-66
2023/09/15 10:43:54;;;;;;;5.15;2.63;;;;;;;19.81;59.73;102078.94;7387850;19;19926;-66
2023/09/15 10:46:23;;;;;;;6.60;2.70;;;;;;;19.90;59.02;102071.38;7394286;19;19970;-66
2023/09/15 10:48:51;;;;;;;5.95;3.38;;;;;;;20.01;58.48;102073.50;7391431;19;19922;-66
2023/09/15 10:51:22;;;;;;;4.70;2.75;;;;;;;20.10;57.38;102063.19;7393113;19;20039;-66
2023/09/15 10:53:53;;;;;;;5.18;2.53;;;;;;;20.22;58.30;102061.50;7393396;19;19922;-65
2023/09/15 10:56:24;;;;;;;8.48;3.13;;;;;;;20.35;57.31;102056.03;7395969;19;19930;-66
2023/09/15 10:58:53;;;;;;;5.60;2.63;;;;;;;20.47;57.61;102058.97;7396015;19;19946;-66
2023/09/15 11:01:22;;;;;;;6.88;2.95;;;;;;;20.58;57.16;102055.59;7389314;19;19927;-66
2023/09/15 11:03:52;;;;;;;5.93;2.72;;;;;;;20.69;57.28;102052.19;7392054;19;20386;-66
2023/09/15 11:06:42;;;;;;;4.57;2.42;;;;;;;20.84;56.01;102050.84;7386949;19;20393;-66
2023/09/15 11:09:12;;;;;;;5.22;2.22;;;;;;;20.96;55.48;102052.94;7388403;19;19919;-66
2023/09/15 11:11:45;;;;;;;6.43;2.50;;;;;;;21.03;55.39;102038.16;7392095;19;19966;-66
2023/09/15 11:14:16;;;;;;;5.15;2.00;;;;;;;21.16;55.92;102031.78;7392507;19;19919;-66
2023/09/15 11:16:48;;;;;;;5.80;1.92;;;;;;;21.28;56.35;102027.28;7385325;19;19929;-67
2023/09/15 11:19:18;;;;;;;4.75;2.28;;;;;;;21.38;55.58;102024.91;7372501;19;19923;-66
2023/09/15 11:21:47;;;;;;;6.60;2.65;;;;;;;21.46;55.35;102021.91;7368050;19;20001;-65
2023/09/15 11:24:18;;;;;;;3.90;2.08;;;;;;;21.60;54.61;102028.16;7392323;19;19923;-65
2023/09/15 11:26:51;;;;;;;5.35;2.30;;;;;;;21.72;54.47;102015.41;7393923;19;20286;-65
2023/09/15 11:29:20;;;;;;;5.13;2.10;;;;;;;21.83;54.47;102022.09;7394979;19;19927;-66
2023/09/15 11:31:49;;;;;;;5.20;2.42;;;;;;;21.93;54.26;102023.28;7393781;19;19934;-66
2023/09/15 11:34:19;;;;;;;4.70;2.20;;;;;;;22.02;54.05;102024.69;7389117;19;19926;-67
2023/09/15 11:36:47;;;;;;;7.15;2.78;;;;;;;22.10;53.65;102018.06;7388259;19;19922;-66
2023/09/15 11:39:16;;;;;;;4.35;1.90;;;;;;;22.12;53.98;102018.69;7393775;19;19958;-66
2023/09/15 11:41:53;;;;;;;2.95;1.92;;;;;;;22.04;53.67;102011.59;7384965;19;20221;-66
2023/09/15 11:44:24;;;;;;;4.72;1.77;;;;;;;21.99;53.32;102008.66;7392356;19;19970;-65
2023/09/15 11:46:55;;;;;;;5.35;2.25;;;;;;;22.10;53.84;102007.06;7399592;19;19981;-65
2023/09/15 11:49:25;;;;;;;6.57;1.90;;;;;;;22.24;53.85;101997.66;7399228;19;19931;-66